createdAt,value
2023-03-14T00:02:08.543Z,1.20
2023-03-14T00:07:12.438Z,1.00
2023-03-14T00:12:15.421Z,1.40
2023-03-14T00:17:17.103Z,1.02
2023-03-14T00:22:19.101Z,1.33
2023-03-14T00:27:20.714Z,1.20
2023-03-14T00:32:22.418Z,1.33
2023-03-14T00:37:24.139Z,1.30
2023-03-14T00:42:25.743Z,1.48
2023-03-14T00:47:27.392Z,1.45
2023-03-14T00:52:29.067Z,1.67
2023-03-14T00:57:30.813Z,1.60
2023-03-14T01:02:32.644Z,1.83
2023-03-14T01:07:34.528Z,1.70
2023-03-14T01:12:36.213Z,1.77
2023-03-14T01:17:40.908Z,1.80
2023-03-14T01:22:43.580Z,1.90
2023-03-14T01:27:45.518Z,1.90
2023-03-14T01:32:47.280Z,1.80
2023-03-14T01:37:48.939Z,1.83
2023-03-14T01:42:57.622Z,2.08
2023-03-14T01:47:59.303Z,1.73
2023-03-14T01:53:01.280Z,2.05
2023-03-14T01:58:05.591Z,1.95
2023-03-14T02:03:12.547Z,2.00
2023-03-14T02:08:16.800Z,1.95
2023-03-14T02:13:23.580Z,1.75
2023-03-14T02:18:48.942Z,2.10
2023-03-14T02:24:39.594Z,2.00
2023-03-14T02:30:01.019Z,1.92
2023-03-14T02:35:08.135Z,2.08
2023-03-14T02:40:10.825Z,1.90
2023-03-14T02:45:16.747Z,2.17
2023-03-14T02:50:22.525Z,2.00
2023-03-14T02:55:24.885Z,1.70
2023-03-14T03:00:31.515Z,1.20
2023-03-14T03:05:33.610Z,0.80
2023-03-14T03:10:35.605Z,0.75
2023-03-14T03:15:37.739Z,0.57
2023-03-14T03:20:39.552Z,0.75
2023-03-14T03:25:41.299Z,0.70
2023-03-14T03:30:44.015Z,0.70
2023-03-14T03:35:54.968Z,0.80
2023-03-14T03:41:06.870Z,0.77
2023-03-14T03:46:09.044Z,0.60
2023-03-14T03:51:15.660Z,0.65
2023-03-14T03:56:18.206Z,0.60
2023-03-14T04:01:20.217Z,0.68
2023-03-14T04:06:25.575Z,0.65
2023-03-14T04:11:29.925Z,0.57
2023-03-14T04:17:06.679Z,0.63
2023-03-14T04:22:08.721Z,0.88
2023-03-14T04:27:19.340Z,0.98
2023-03-14T04:32:22.565Z,0.60
2023-03-14T04:37:24.696Z,0.60
2023-03-14T04:42:26.525Z,0.80
2023-03-14T04:47:28.404Z,0.70
2023-03-14T04:52:30.301Z,0.93
2023-03-14T04:57:33.133Z,0.73
2023-03-14T05:02:35.692Z,1.05
2023-03-14T05:07:47.510Z,0.80
2023-03-14T05:13:01.077Z,0.98
2023-03-14T05:18:31.674Z,0.82
2023-03-14T05:24:02.347Z,1.17
2023-03-14T05:29:27.060Z,0.90
2023-03-14T05:34:38.755Z,0.93
2023-03-14T05:39:58.880Z,1.10
2023-03-14T05:45:24.987Z,1.10
2023-03-14T05:51:00.290Z,1.10
2023-03-14T05:56:31.139Z,1.10
2023-03-14T06:01:41.518Z,1.20
2023-03-14T06:06:49.723Z,1.30
2023-03-14T06:11:52.435Z,1.17
2023-03-14T06:16:55.459Z,1.35
2023-03-14T06:21:59.299Z,1.25
2023-03-14T06:27:03.917Z,1.30
2023-03-14T06:32:06.657Z,1.50
2023-03-14T06:37:08.547Z,1.10
2023-03-14T06:42:10.682Z,1.42
2023-03-14T06:47:14.150Z,1.45
2023-03-14T06:52:18.961Z,1.70
2023-03-14T06:57:20.682Z,1.90
2023-03-14T07:02:36.061Z,1.40
2023-03-14T07:07:49.661Z,1.63
2023-03-14T07:12:53.839Z,1.73
2023-03-14T07:17:58.298Z,1.60
2023-03-14T07:23:01.189Z,1.30
2023-03-14T07:28:12.612Z,1.65
2023-03-14T07:33:16.947Z,1.60
2023-03-14T07:38:22.252Z,2.00
2023-03-14T07:43:59.896Z,1.60
2023-03-14T07:49:01.534Z,1.60
2023-03-14T07:54:03.272Z,1.27
2023-03-14T07:59:04.901Z,1.23
2023-03-14T08:04:06.592Z,1.40
2023-03-14T08:09:08.437Z,1.50
2023-03-14T08:14:12.069Z,1.40
2023-03-14T08:19:13.664Z,1.20
2023-03-14T08:24:15.241Z,1.20
2023-03-14T08:29:16.895Z,1.67
2023-03-14T08:34:18.695Z,1.45
2023-03-14T08:39:20.262Z,1.52
2023-03-14T08:44:21.869Z,1.30
2023-03-14T08:49:23.608Z,1.02
2023-03-14T08:54:25.385Z,1.00
2023-03-14T08:59:27.113Z,0.93
2023-03-14T09:04:28.796Z,1.13
2023-03-14T09:09:33.477Z,0.93
2023-03-14T09:14:35.272Z,0.98
2023-03-14T09:19:37.019Z,0.90
2023-03-14T09:24:38.586Z,1.05
2023-03-14T09:29:40.208Z,1.42
2023-03-14T09:34:41.860Z,1.38
2023-03-14T09:39:43.894Z,0.98
2023-03-14T09:44:58.321Z,0.95
2023-03-14T09:50:02.541Z,1.30
2023-03-14T09:55:07.403Z,0.93
2023-03-14T10:00:19.297Z,1.10
2023-03-14T10:05:23.416Z,0.93
2023-03-14T10:10:26.960Z,1.40
2023-03-14T10:15:33.790Z,1.55
2023-03-14T10:20:41.149Z,0.90
2023-03-14T10:25:45.620Z,1.13
2023-03-14T10:30:47.386Z,0.82
2023-03-14T10:36:24.699Z,0.68
2023-03-14T10:41:28.162Z,1.08
2023-03-14T10:46:32.444Z,1.30
2023-03-14T10:51:52.621Z,1.38
2023-03-14T10:57:01.705Z,0.85
2023-03-14T11:02:15.289Z,1.00
2023-03-14T11:07:30.492Z,0.80
2023-03-14T11:12:47.084Z,0.70
2023-03-14T11:18:14.358Z,1.15
2023-03-14T11:23:21.826Z,1.05
2023-03-14T11:28:37.566Z,0.95
2023-03-14T11:33:45.523Z,0.93
2023-03-14T11:38:50.228Z,0.90
2023-03-14T11:43:56.347Z,1.00
2023-03-14T11:49:22.140Z,1.63
2023-03-14T11:54:34.260Z,0.90
2023-03-14T12:00:13.755Z,1.05
2023-03-14T12:05:24.442Z,1.10
2023-03-14T12:10:26.018Z,0.93
2023-03-14T12:15:27.622Z,0.95
2023-03-14T12:20:29.234Z,1.20
2023-03-14T12:25:33.053Z,0.98
2023-03-14T12:30:42.143Z,0.93
2023-03-14T12:35:53.885Z,0.80
2023-03-14T12:41:33.003Z,0.93
2023-03-14T12:46:34.652Z,0.85
2023-03-14T12:51:38.456Z,0.73
2023-03-14T12:57:00.799Z,0.70
2023-03-14T13:02:08.159Z,0.70
2023-03-14T13:07:53.092Z,0.82
2023-03-14T13:12:58.386Z,0.50
2023-03-14T13:18:24.016Z,0.70
2023-03-14T13:23:34.387Z,0.60
2023-03-14T13:28:36.211Z,0.70
2023-03-14T13:33:37.782Z,0.70
2023-03-14T13:38:39.346Z,0.50
2023-03-14T13:43:42.180Z,0.57
2023-03-14T13:49:04.910Z,0.65
2023-03-14T13:54:21.305Z,0.70
2023-03-14T13:59:36.525Z,0.68
2023-03-14T14:04:38.551Z,0.60
2023-03-14T14:09:44.084Z,0.50
2023-03-14T14:14:57.177Z,0.60
2023-03-14T14:19:59.992Z,0.60
2023-03-14T14:25:02.771Z,0.40
2023-03-14T14:30:19.647Z,0.52
2023-03-14T14:35:35.417Z,0.70
2023-03-14T14:40:45.206Z,0.50
2023-03-14T14:45:49.284Z,0.63
2023-03-14T14:51:05.940Z,0.60
2023-03-14T14:56:23.492Z,0.50
2023-03-14T15:01:27.765Z,0.63
2023-03-14T15:06:31.918Z,0.55
2023-03-14T15:11:33.526Z,0.55
2023-03-14T15:16:35.664Z,0.50
2023-03-14T15:21:37.352Z,0.70
2023-03-14T15:26:39.100Z,0.47
2023-03-14T15:31:41.604Z,0.80
2023-03-14T15:36:43.310Z,0.60
2023-03-14T15:41:44.897Z,0.70
2023-03-14T15:46:46.518Z,0.85
2023-03-14T15:51:48.091Z,0.70
2023-03-14T15:56:49.659Z,0.80
2023-03-14T16:01:51.468Z,0.70
2023-03-14T16:06:53.087Z,0.60
2023-03-14T16:11:54.966Z,1.00
2023-03-14T16:16:59.999Z,0.70
2023-03-14T16:22:01.742Z,0.70
2023-03-14T16:27:03.402Z,0.70
2023-03-14T16:32:05.450Z,0.60
2023-03-14T16:37:07.199Z,0.70
2023-03-14T16:42:08.966Z,0.90
2023-03-14T16:47:11.109Z,0.55
2023-03-14T16:52:12.885Z,0.80
2023-03-14T16:57:14.421Z,0.80
2023-03-14T17:02:16.166Z,0.80
2023-03-14T17:07:17.760Z,0.88
2023-03-14T17:12:19.319Z,1.17
2023-03-14T17:17:20.934Z,0.63
2023-03-14T17:22:25.128Z,0.57
2023-03-14T17:27:30.704Z,0.80
2023-03-14T17:32:32.344Z,0.80
2023-03-14T17:37:34.490Z,0.52
2023-03-14T17:42:36.072Z,0.70
2023-03-14T17:47:37.674Z,0.93
2023-03-14T17:52:39.626Z,1.00
2023-03-14T17:57:43.981Z,1.00
2023-03-14T18:02:45.916Z,0.88
2023-03-14T18:07:47.526Z,1.42
2023-03-14T18:12:49.095Z,1.95
2023-03-14T18:17:50.939Z,1.98
2023-03-14T18:22:52.502Z,1.67
2023-03-14T18:27:54.185Z,1.60
2023-03-14T18:32:55.822Z,1.50
2023-03-14T18:37:57.462Z,1.30
2023-03-14T18:42:59.038Z,1.20
2023-03-14T18:48:00.757Z,1.27
2023-03-14T18:53:03.098Z,1.20
2023-03-14T18:58:04.659Z,1.42
2023-03-14T19:03:06.288Z,1.13
2023-03-14T19:08:07.893Z,1.33
2023-03-14T19:13:09.460Z,1.38
2023-03-14T19:18:11.290Z,1.42
2023-03-14T19:23:15.462Z,1.50
2023-03-14T19:28:17.328Z,1.52
2023-03-14T19:33:19.102Z,1.45
2023-03-14T19:38:20.706Z,1.75
2023-03-14T19:43:22.278Z,1.27
2023-03-14T19:48:30.098Z,1.80
2023-03-14T19:53:32.100Z,1.40
2023-03-14T19:58:34.049Z,1.58
2023-03-14T20:03:36.520Z,2.10
2023-03-14T20:08:38.911Z,1.70
2023-03-14T20:13:40.600Z,1.70
2023-03-14T20:18:42.238Z,2.28
2023-03-14T20:23:44.156Z,2.15
2023-03-14T20:28:47.184Z,2.30
2023-03-14T20:33:51.301Z,1.95
2023-03-14T20:38:53.585Z,2.08
2023-03-14T20:43:55.188Z,1.80
2023-03-14T20:48:56.753Z,2.35
2023-03-14T20:53:58.459Z,1.50
2023-03-14T20:59:00.017Z,1.88
2023-03-14T21:04:01.933Z,2.20
2023-03-14T21:09:05.580Z,1.73
2023-03-14T21:14:07.244Z,1.95
2023-03-14T21:19:08.812Z,1.92
2023-03-14T21:24:10.461Z,1.58
2023-03-14T21:29:12.212Z,1.92
2023-03-14T21:34:13.869Z,1.60
2023-03-14T21:39:15.559Z,1.83
2023-03-14T21:44:19.053Z,2.13
2023-03-14T21:49:20.729Z,1.85
2023-03-14T21:54:22.414Z,1.95
2023-03-14T21:59:24.021Z,1.88
2023-03-14T22:04:25.888Z,2.08
2023-03-14T22:09:27.587Z,1.98
2023-03-14T22:14:29.133Z,2.80
2023-03-14T22:19:34.737Z,1.90
2023-03-14T22:24:36.240Z,1.98
2023-03-14T22:29:37.939Z,2.47
2023-03-14T22:34:39.541Z,2.10
2023-03-14T22:39:41.286Z,2.08
2023-03-14T22:44:42.812Z,1.65
2023-03-14T22:49:44.606Z,1.80
2023-03-14T22:54:46.209Z,1.77
2023-03-14T22:59:47.775Z,1.58
2023-03-14T23:04:49.471Z,2.13
2023-03-14T23:09:51.085Z,2.00
2023-03-14T23:14:53.898Z,1.90
2023-03-14T23:19:55.642Z,1.85
2023-03-14T23:24:57.190Z,2.17
2023-03-14T23:29:58.803Z,1.85
2023-03-14T23:35:00.379Z,2.45
2023-03-14T23:40:03.080Z,1.83
2023-03-14T23:45:05.116Z,2.35
2023-03-14T23:50:07.154Z,2.20
2023-03-14T23:55:09.176Z,1.75
